createdAt,value
2022-09-22T00:00:45.641Z,4.91
2022-09-22T00:01:45.620Z,4.88
2022-09-22T00:02:45.571Z,4.87
2022-09-22T00:03:45.553Z,4.90
2022-09-22T00:04:45.539Z,4.91
2022-09-22T00:05:45.548Z,4.94
2022-09-22T00:06:45.518Z,4.93
2022-09-22T00:07:45.499Z,4.93
2022-09-22T00:08:45.486Z,4.79
2022-09-22T00:09:45.471Z,4.79
2022-09-22T00:10:45.461Z,4.80
2022-09-22T00:11:45.440Z,4.84
2022-09-22T00:12:45.437Z,4.91
2022-09-22T00:13:45.413Z,4.74
2022-09-22T00:14:45.405Z,4.72
2022-09-22T00:15:45.390Z,4.74
2022-09-22T00:16:45.503Z,4.80
2022-09-22T00:17:45.363Z,4.71
2022-09-22T00:18:45.354Z,4.74
2022-09-22T00:19:45.343Z,4.77
2022-09-22T00:20:45.324Z,4.75
2022-09-22T00:21:45.332Z,4.72
2022-09-22T00:22:45.300Z,4.74
2022-09-22T00:23:45.287Z,4.65
2022-09-22T00:24:45.271Z,4.64
2022-09-22T00:25:45.252Z,4.62
2022-09-22T00:26:45.243Z,4.61
2022-09-22T00:27:45.229Z,4.68
2022-09-22T00:28:45.231Z,4.69
2022-09-22T00:29:45.198Z,4.62
2022-09-22T00:30:45.190Z,4.62
2022-09-22T00:31:45.304Z,4.65
2022-09-22T00:32:45.168Z,4.61
2022-09-22T00:33:45.155Z,4.53
2022-09-22T00:34:45.141Z,4.62
2022-09-22T00:35:45.124Z,4.64
2022-09-22T00:36:45.125Z,4.61
2022-09-22T00:37:45.116Z,4.61
2022-09-22T00:38:45.082Z,4.51
2022-09-22T00:39:45.074Z,4.46
2022-09-22T00:40:45.094Z,4.54
2022-09-22T00:41:45.041Z,4.46
2022-09-22T00:42:45.030Z,4.57
2022-09-22T00:43:45.013Z,4.43
2022-09-22T00:44:45.008Z,4.44
2022-09-22T00:45:44.994Z,4.51
2022-09-22T00:46:45.105Z,4.49
2022-09-22T00:47:44.963Z,4.38
2022-09-22T00:48:44.954Z,4.46
2022-09-22T00:49:44.938Z,4.51
2022-09-22T00:50:44.933Z,4.43
2022-09-22T00:51:44.913Z,4.42
2022-09-22T00:52:44.900Z,4.38
2022-09-22T00:53:44.901Z,4.34
2022-09-22T00:54:44.866Z,4.24
2022-09-22T00:55:44.851Z,4.32
2022-09-22T00:56:44.840Z,4.42
2022-09-22T00:57:44.827Z,4.26
2022-09-22T00:58:44.816Z,4.25
2022-09-22T00:59:44.800Z,4.29
2022-09-22T01:00:44.878Z,4.16
2022-09-22T01:01:44.818Z,4.26
2022-09-22T01:02:44.770Z,4.18
2022-09-22T01:03:44.751Z,4.21
2022-09-22T01:04:44.741Z,4.16
2022-09-22T01:05:44.722Z,4.24
2022-09-22T01:06:44.714Z,4.16
2022-09-22T01:07:44.696Z,4.10
2022-09-22T01:08:44.689Z,4.14
2022-09-22T01:09:44.697Z,4.14
2022-09-22T01:10:44.658Z,4.08
2022-09-22T01:11:44.643Z,4.04
2022-09-22T01:12:44.637Z,4.06
2022-09-22T01:13:44.617Z,4.02
2022-09-22T01:14:44.612Z,4.04
2022-09-22T01:15:44.635Z,3.99
2022-09-22T01:16:44.584Z,4.17
2022-09-22T01:17:44.556Z,3.98
2022-09-22T01:18:44.552Z,3.88
2022-09-22T01:19:44.534Z,3.92
2022-09-22T01:20:44.523Z,3.98
2022-09-22T01:21:44.511Z,3.93
2022-09-22T01:22:44.496Z,3.90
2022-09-22T01:23:44.478Z,3.92
2022-09-22T01:24:44.474Z,3.98
2022-09-22T01:25:44.479Z,4.04
2022-09-22T01:26:44.448Z,4.07
2022-09-22T01:27:44.436Z,4.04
2022-09-22T01:28:44.422Z,4.00
2022-09-22T01:29:44.404Z,3.93
2022-09-22T01:30:44.396Z,3.90
2022-09-22T01:31:44.425Z,3.90
2022-09-22T01:32:44.369Z,4.04
2022-09-22T01:33:44.348Z,3.95
2022-09-22T01:34:44.336Z,3.98
2022-09-22T01:35:44.320Z,3.86
2022-09-22T01:36:44.322Z,3.90
2022-09-22T01:37:44.303Z,3.88
2022-09-22T01:38:44.287Z,3.84
2022-09-22T01:39:44.269Z,3.90
2022-09-22T01:40:44.317Z,3.77
2022-09-22T01:41:44.264Z,3.90
2022-09-22T01:42:44.234Z,3.81
2022-09-22T01:43:44.211Z,3.75
2022-09-22T01:44:44.203Z,3.71
2022-09-22T01:45:44.188Z,3.78
2022-09-22T01:46:44.254Z,3.75
2022-09-22T01:47:44.161Z,3.84
2022-09-22T01:48:44.151Z,3.82
2022-09-22T01:49:44.138Z,3.77
2022-09-22T01:50:44.126Z,3.67
2022-09-22T01:51:44.111Z,3.64
2022-09-22T01:52:44.105Z,3.70
2022-09-22T01:53:44.087Z,3.64
2022-09-22T01:54:44.077Z,3.64
2022-09-22T01:55:44.058Z,3.64
2022-09-22T01:56:44.050Z,3.63
2022-09-22T01:57:44.054Z,3.57
2022-09-22T01:58:44.022Z,3.54
2022-09-22T01:59:44.009Z,3.53
2022-09-22T02:00:43.998Z,3.63
2022-09-22T02:01:44.140Z,3.59
2022-09-22T02:02:44.133Z,3.50
2022-09-22T02:03:43.949Z,3.54
2022-09-22T02:04:43.942Z,3.53
2022-09-22T02:05:43.921Z,3.50
2022-09-22T02:06:43.912Z,3.52
2022-09-22T02:07:43.895Z,3.49
2022-09-22T02:08:43.893Z,3.52
2022-09-22T02:09:43.867Z,3.41
2022-09-22T02:10:43.859Z,3.45
2022-09-22T02:11:43.845Z,3.42
2022-09-22T02:12:43.833Z,3.50
2022-09-22T02:13:43.842Z,3.60
2022-09-22T02:14:43.813Z,3.45
2022-09-22T02:15:43.877Z,3.44
2022-09-22T02:16:43.795Z,3.50
2022-09-22T02:17:43.772Z,3.54
2022-09-22T02:18:43.757Z,3.45
2022-09-22T02:19:43.743Z,3.46
2022-09-22T02:20:43.731Z,3.60
2022-09-22T02:21:43.711Z,3.39
2022-09-22T02:22:43.704Z,3.46
2022-09-22T02:23:43.684Z,3.44
2022-09-22T02:24:43.682Z,3.30
2022-09-22T02:25:43.661Z,3.53
2022-09-22T02:26:43.651Z,3.37
2022-09-22T02:27:43.632Z,3.37
2022-09-22T02:28:43.627Z,3.41
2022-09-22T02:29:43.632Z,3.34
2022-09-22T02:30:58.896Z,3.49
2022-09-22T02:31:44.683Z,3.50
2022-09-22T02:32:43.565Z,3.44
2022-09-22T02:33:43.553Z,3.30
2022-09-22T02:34:43.541Z,3.35
2022-09-22T02:35:43.530Z,3.35
2022-09-22T02:36:43.566Z,3.28
2022-09-22T02:37:43.510Z,3.35
2022-09-22T02:38:43.493Z,3.34
2022-09-22T02:39:43.478Z,3.19
2022-09-22T02:40:43.533Z,3.19
2022-09-22T02:41:43.457Z,3.28
2022-09-22T02:42:43.434Z,3.31
2022-09-22T02:43:43.427Z,3.22
2022-09-22T02:44:43.409Z,3.22
2022-09-22T02:45:43.418Z,3.22
2022-09-22T02:46:43.491Z,3.15
2022-09-22T02:47:43.370Z,3.04
2022-09-22T02:48:43.353Z,3.16
2022-09-22T02:49:43.341Z,3.17
2022-09-22T02:50:43.323Z,3.13
2022-09-22T02:51:43.322Z,3.10
2022-09-22T02:52:43.299Z,3.16
2022-09-22T02:53:43.293Z,3.22
2022-09-22T02:54:43.283Z,3.20
2022-09-22T02:55:43.265Z,3.17
2022-09-22T02:56:43.249Z,3.17
2022-09-22T02:57:43.247Z,3.33
2022-09-22T02:58:43.223Z,3.20
2022-09-22T02:59:43.212Z,3.19
2022-09-22T03:00:43.197Z,3.17
2022-09-22T03:01:43.264Z,3.10
2022-09-22T03:02:43.168Z,3.22
2022-09-22T03:03:43.160Z,3.16
2022-09-22T03:04:43.169Z,3.05
2022-09-22T03:05:43.132Z,3.05
2022-09-22T03:06:43.125Z,3.05
2022-09-22T03:07:43.101Z,3.08
2022-09-22T03:08:43.093Z,3.13
2022-09-22T03:09:43.086Z,3.10
2022-09-22T03:10:43.067Z,3.04
2022-09-22T03:11:43.059Z,2.99
2022-09-22T03:13:02.420Z,3.05
2022-09-22T03:13:44.043Z,3.01
2022-09-22T03:14:43.016Z,3.02
2022-09-22T03:15:43.077Z,2.94
2022-09-22T03:16:42.980Z,2.90
2022-09-22T03:17:42.998Z,2.98
2022-09-22T03:18:42.958Z,2.95
2022-09-22T03:19:42.950Z,2.90
2022-09-22T03:20:42.932Z,2.87
2022-09-22T03:21:42.927Z,2.87
2022-09-22T03:22:42.909Z,2.81
2022-09-22T03:23:42.893Z,2.94
2022-09-22T03:24:42.883Z,2.89
2022-09-22T03:25:42.864Z,2.86
2022-09-22T03:26:42.851Z,2.95
2022-09-22T03:27:42.839Z,2.87
2022-09-22T03:28:42.823Z,2.83
2022-09-22T03:29:42.812Z,2.92
2022-09-22T03:30:42.855Z,2.83
2022-09-22T03:31:42.838Z,2.86
2022-09-22T03:32:42.769Z,2.81
2022-09-22T03:33:42.783Z,2.92
2022-09-22T03:34:42.750Z,2.80
2022-09-22T03:35:42.734Z,2.80
2022-09-22T03:36:42.721Z,2.73
2022-09-22T03:37:42.708Z,2.71
2022-09-22T03:38:42.693Z,2.73
2022-09-22T03:39:42.689Z,2.68
2022-09-22T03:40:42.834Z,2.71
2022-09-22T03:41:42.654Z,2.71
2022-09-22T03:42:42.638Z,2.73
2022-09-22T03:43:42.624Z,2.74
2022-09-22T03:44:42.609Z,2.68
2022-09-22T03:45:42.688Z,2.73
2022-09-22T03:46:42.589Z,2.69
2022-09-22T03:47:42.574Z,2.73
2022-09-22T03:48:45.142Z,2.63
2022-09-22T03:49:42.565Z,2.61
2022-09-22T03:50:42.525Z,2.65
2022-09-22T03:51:42.517Z,2.58
2022-09-22T03:52:42.501Z,2.68
2022-09-22T03:53:42.501Z,2.71
2022-09-22T03:54:42.477Z,2.61
2022-09-22T03:55:42.468Z,2.53
2022-09-22T03:56:42.447Z,2.55
2022-09-22T03:57:42.438Z,2.65
2022-09-22T03:58:42.423Z,2.65
2022-09-22T03:59:42.410Z,2.66
2022-09-22T04:00:42.397Z,2.69
2022-09-22T04:01:42.501Z,2.73
2022-09-22T04:02:42.454Z,2.59
2022-09-22T04:03:42.360Z,2.74
2022-09-22T04:04:42.344Z,2.73
2022-09-22T04:05:42.351Z,2.66
2022-09-22T04:06:42.313Z,2.68
2022-09-22T04:07:42.305Z,2.68
2022-09-22T04:08:42.292Z,2.65
2022-09-22T04:09:42.273Z,2.61
2022-09-22T04:10:42.263Z,2.69
2022-09-22T04:11:42.252Z,2.71
2022-09-22T04:12:42.238Z,2.63
2022-09-22T04:13:46.218Z,2.51
2022-09-22T04:14:42.206Z,2.62
2022-09-22T04:15:42.299Z,2.59
2022-09-22T04:16:42.212Z,2.62
2022-09-22T04:17:42.167Z,2.73
2022-09-22T04:18:42.155Z,2.69
2022-09-22T04:19:42.142Z,2.62
2022-09-22T04:20:42.126Z,2.63
2022-09-22T04:21:42.138Z,2.62
2022-09-22T04:22:42.094Z,2.55
2022-09-22T04:23:42.084Z,2.53
2022-09-22T04:24:42.068Z,2.50
2022-09-22T04:25:42.056Z,2.55
2022-09-22T04:27:01.909Z,2.48
2022-09-22T04:27:43.051Z,2.55
2022-09-22T04:28:42.015Z,2.99
2022-09-22T04:29:42.007Z,3.25
2022-09-22T04:30:42.035Z,3.53
2022-09-22T04:31:41.985Z,3.60
2022-09-22T04:32:41.963Z,3.62
2022-09-22T04:33:41.951Z,3.67
2022-09-22T04:34:41.940Z,3.60
2022-09-22T04:35:41.929Z,3.68
2022-09-22T04:36:41.912Z,3.45
2022-09-22T04:37:41.918Z,3.44
2022-09-22T04:38:41.879Z,3.37
2022-09-22T04:39:41.871Z,3.31
2022-09-22T04:40:41.965Z,3.20
2022-09-22T04:41:41.844Z,3.22
2022-09-22T04:42:41.827Z,3.22
2022-09-22T04:43:41.815Z,3.01
2022-09-22T04:44:41.797Z,2.98
2022-09-22T04:45:41.803Z,2.98
2022-09-22T04:46:41.773Z,2.97
2022-09-22T04:47:41.767Z,2.87
2022-09-22T04:48:41.747Z,2.84
2022-09-22T04:49:41.731Z,2.81
2022-09-22T04:50:45.797Z,2.90
2022-09-22T04:51:42.728Z,2.77
2022-09-22T04:52:41.686Z,2.84
2022-09-22T04:53:41.703Z,2.76
2022-09-22T04:54:41.668Z,2.79
2022-09-22T04:55:41.661Z,2.71
2022-09-22T04:56:41.641Z,2.80
2022-09-22T04:57:41.630Z,2.80
2022-09-22T04:58:41.615Z,2.62
2022-09-22T04:59:41.600Z,2.62
2022-09-22T05:00:41.594Z,2.63
2022-09-22T05:01:41.660Z,2.71
2022-09-22T05:02:41.602Z,2.59
2022-09-22T05:03:41.543Z,2.51
2022-09-22T05:04:41.536Z,2.59
2022-09-22T05:05:41.518Z,2.48
2022-09-22T05:06:41.501Z,2.53
2022-09-22T05:07:41.490Z,2.44
2022-09-22T05:08:41.479Z,2.41
2022-09-22T05:09:41.491Z,2.56
2022-09-22T05:10:41.450Z,2.50
2022-09-22T05:11:41.439Z,2.45
2022-09-22T05:12:41.425Z,2.55
2022-09-22T05:13:41.500Z,2.44
2022-09-22T05:14:41.398Z,2.32
2022-09-22T05:15:41.388Z,2.48
2022-09-22T05:16:41.511Z,2.32
2022-09-22T05:17:41.360Z,2.36
2022-09-22T05:18:41.344Z,2.37
2022-09-22T05:19:41.332Z,2.33
2022-09-22T05:20:41.312Z,2.37
2022-09-22T05:21:41.312Z,2.41
2022-09-22T05:22:41.292Z,2.44
2022-09-22T05:23:41.280Z,2.44
2022-09-22T05:24:41.270Z,2.36
2022-09-22T05:25:41.270Z,2.45
2022-09-22T05:26:41.233Z,2.33
2022-09-22T05:27:41.224Z,2.43
2022-09-22T05:28:41.219Z,2.47
2022-09-22T05:29:41.202Z,2.56
2022-09-22T05:30:41.183Z,2.44
2022-09-22T05:31:41.244Z,2.48
2022-09-22T05:32:41.154Z,2.50
2022-09-22T05:33:41.150Z,2.59
2022-09-22T05:34:41.131Z,2.51
2022-09-22T05:35:41.122Z,2.47
2022-09-22T05:36:41.103Z,2.53
2022-09-22T05:37:41.095Z,2.63
2022-09-22T05:38:41.078Z,2.63
2022-09-22T05:39:41.074Z,2.68
2022-09-22T05:40:41.184Z,2.79
2022-09-22T05:41:41.060Z,2.77
2022-09-22T05:42:41.020Z,2.79
2022-09-22T05:43:41.010Z,2.79
2022-09-22T05:44:40.990Z,2.90
2022-09-22T05:45:41.045Z,3.12
2022-09-22T05:46:40.967Z,3.13
2022-09-22T05:47:40.963Z,3.17
2022-09-22T05:48:40.936Z,3.15
2022-09-22T05:49:40.929Z,3.20
2022-09-22T05:50:40.913Z,3.31
2022-09-22T05:51:40.906Z,3.37
2022-09-22T05:52:40.886Z,3.49
2022-09-22T05:53:40.880Z,3.63
2022-09-22T05:54:40.858Z,3.82
2022-09-22T05:55:40.850Z,3.99
2022-09-22T05:56:40.832Z,4.25
2022-09-22T05:57:40.845Z,4.49
2022-09-22T05:58:40.816Z,4.51
2022-09-22T05:59:40.818Z,4.67
2022-09-22T06:00:40.887Z,4.80
2022-09-22T06:01:40.778Z,5.06
2022-09-22T06:02:40.881Z,5.23
2022-09-22T06:03:40.763Z,5.44
2022-09-22T06:04:40.735Z,5.62
2022-09-22T06:05:40.715Z,5.80
2022-09-22T06:06:40.708Z,5.83
2022-09-22T06:07:40.690Z,5.93
2022-09-22T06:08:43.922Z,6.02
2022-09-22T06:09:40.661Z,6.17
2022-09-22T06:10:40.648Z,6.25
2022-09-22T06:11:40.635Z,6.42
2022-09-22T06:12:40.618Z,6.46
2022-09-22T06:13:40.635Z,6.55
2022-09-22T06:14:40.598Z,6.72
2022-09-22T06:15:40.596Z,7.01
2022-09-22T06:16:40.673Z,7.16
2022-09-22T06:17:40.558Z,7.52
2022-09-22T06:18:40.539Z,7.73
2022-09-22T06:19:40.530Z,7.84
2022-09-22T06:20:40.519Z,7.96
2022-09-22T06:21:40.498Z,7.74
2022-09-22T06:22:40.487Z,7.86
2022-09-22T06:23:42.834Z,8.02
2022-09-22T06:24:40.457Z,8.10
2022-09-22T06:25:40.455Z,8.14
2022-09-22T06:26:40.434Z,8.36
2022-09-22T06:27:40.430Z,8.49
2022-09-22T06:28:40.408Z,8.73
2022-09-22T06:29:40.415Z,8.71
2022-09-22T06:30:40.383Z,8.75
2022-09-22T06:31:40.417Z,8.50
2022-09-22T06:32:40.349Z,8.49
2022-09-22T06:33:40.340Z,8.78
2022-09-22T06:34:40.342Z,8.76
2022-09-22T06:35:40.319Z,8.79
2022-09-22T06:36:40.301Z,8.85
2022-09-22T06:37:40.288Z,9.12
2022-09-22T06:38:40.278Z,8.98
2022-09-22T06:39:40.262Z,9.22
2022-09-22T06:40:40.283Z,9.58
2022-09-22T06:41:40.587Z,9.67
2022-09-22T06:42:40.219Z,9.85
2022-09-22T06:43:40.210Z,9.95
2022-09-22T06:44:40.193Z,9.68
2022-09-22T06:45:40.370Z,9.78
2022-09-22T06:46:40.163Z,10.04
2022-09-22T06:47:40.151Z,10.26
2022-09-22T06:48:40.134Z,10.52
2022-09-22T06:49:40.122Z,10.86
2022-09-22T06:50:40.106Z,11.01
2022-09-22T06:51:40.096Z,11.20
2022-09-22T06:52:40.080Z,11.45
2022-09-22T06:53:40.077Z,11.57
2022-09-22T06:54:40.057Z,11.87
2022-09-22T06:55:40.050Z,11.79
2022-09-22T06:56:40.033Z,11.48
2022-09-22T06:57:40.024Z,11.49
2022-09-22T06:59:05.463Z,11.28
2022-09-22T06:59:41.023Z,11.45
2022-09-22T07:00:40.176Z,11.60
2022-09-22T07:01:40.112Z,11.93
2022-09-22T07:02:39.954Z,12.08
2022-09-22T07:03:39.934Z,12.19
2022-09-22T07:04:39.924Z,12.36
2022-09-22T07:05:39.912Z,12.37
2022-09-22T07:06:39.899Z,12.58
2022-09-22T07:07:39.883Z,12.55
2022-09-22T07:08:39.870Z,12.87
2022-09-22T07:09:39.856Z,13.19
2022-09-22T07:10:39.847Z,13.55
2022-09-22T07:11:40.453Z,13.91
2022-09-22T07:12:39.821Z,14.05
2022-09-22T07:13:39.813Z,14.08
2022-09-22T07:14:39.795Z,13.83
2022-09-22T07:15:39.781Z,13.86
2022-09-22T07:16:39.820Z,13.96
2022-09-22T07:17:39.772Z,14.19
2022-09-22T07:18:39.739Z,14.42
2022-09-22T07:19:39.717Z,14.64
2022-09-22T07:20:39.709Z,14.17
2022-09-22T07:21:39.692Z,13.93
2022-09-22T07:22:39.684Z,13.80
2022-09-22T07:23:39.668Z,13.44
2022-09-22T07:24:39.659Z,13.46
2022-09-22T07:25:39.644Z,13.71
2022-09-22T07:26:39.640Z,14.09
2022-09-22T07:27:39.621Z,14.21
2022-09-22T07:28:39.604Z,14.31
2022-09-22T07:29:39.587Z,14.72
2022-09-22T07:30:39.579Z,15.00
2022-09-22T07:31:39.590Z,15.40
2022-09-22T07:32:39.556Z,15.43
2022-09-22T07:33:39.558Z,15.62
2022-09-22T07:34:39.531Z,15.84
2022-09-22T07:35:39.512Z,15.58
2022-09-22T07:36:39.504Z,15.27
2022-09-22T07:37:39.487Z,15.13
2022-09-22T07:38:39.478Z,15.28
2022-09-22T07:39:39.462Z,15.52
2022-09-22T07:40:39.499Z,15.30
2022-09-22T07:41:39.436Z,14.98
2022-09-22T07:42:39.422Z,14.93
2022-09-22T07:43:39.405Z,14.57
2022-09-22T07:44:43.710Z,13.99
2022-09-22T07:45:39.376Z,13.43
2022-09-22T07:46:39.591Z,12.91
2022-09-22T07:47:39.360Z,12.70
2022-09-22T07:48:39.343Z,12.51
2022-09-22T07:49:39.349Z,12.23
2022-09-22T07:50:39.318Z,11.96
2022-09-22T07:51:39.305Z,11.74
2022-09-22T07:52:39.294Z,11.56
2022-09-22T07:53:39.284Z,11.35
2022-09-22T07:54:39.267Z,11.20
2022-09-22T07:55:39.249Z,11.06
2022-09-22T07:56:39.241Z,10.80
2022-09-22T07:57:39.223Z,10.69
2022-09-22T07:58:39.204Z,10.58
2022-09-22T07:59:39.191Z,10.52
2022-09-22T08:00:39.219Z,10.42
2022-09-22T08:01:39.207Z,10.49
2022-09-22T08:02:39.158Z,10.38
2022-09-22T08:03:39.142Z,10.24
2022-09-22T08:04:39.133Z,10.34
2022-09-22T08:05:39.132Z,10.17
2022-09-22T08:06:39.101Z,10.18
2022-09-22T08:07:39.084Z,10.11
2022-09-22T08:08:39.075Z,10.60
2022-09-22T08:09:39.059Z,11.54
2022-09-22T08:10:39.047Z,12.46
2022-09-22T08:11:39.036Z,13.35
2022-09-22T08:12:39.022Z,14.12
2022-09-22T08:13:39.028Z,14.74
2022-09-22T08:14:39.000Z,15.31
2022-09-22T08:15:38.984Z,15.53
2022-09-22T08:16:38.972Z,15.98
2022-09-22T08:17:38.962Z,16.42
2022-09-22T08:18:38.951Z,17.10
2022-09-22T08:19:38.933Z,17.47
2022-09-22T08:20:42.887Z,17.87
2022-09-22T08:21:47.761Z,18.17
2022-09-22T08:22:39.912Z,18.54
2022-09-22T08:23:38.871Z,18.72
2022-09-22T08:24:38.861Z,19.09
2022-09-22T08:25:38.842Z,19.09
2022-09-22T08:26:38.837Z,19.25
2022-09-22T08:27:38.819Z,19.67
2022-09-22T08:28:38.810Z,19.70
2022-09-22T08:29:38.799Z,20.13
2022-09-22T08:30:38.790Z,20.22
2022-09-22T08:31:38.797Z,20.22
2022-09-22T08:32:38.761Z,20.44
2022-09-22T08:33:38.750Z,20.66
2022-09-22T08:34:38.740Z,20.83
2022-09-22T08:35:38.713Z,20.87
2022-09-22T08:36:38.708Z,20.93
2022-09-22T08:37:38.766Z,20.93
2022-09-22T08:38:38.683Z,20.60
2022-09-22T08:39:38.666Z,20.83
2022-09-22T08:40:38.722Z,20.56
2022-09-22T08:41:38.641Z,20.71
2022-09-22T08:42:38.632Z,20.51
2022-09-22T08:43:38.610Z,20.30
2022-09-22T08:44:38.607Z,20.48
2022-09-22T08:45:38.585Z,20.60
2022-09-22T08:46:38.674Z,20.91
2022-09-22T08:47:38.560Z,21.11
2022-09-22T08:48:38.558Z,21.37
2022-09-22T08:49:38.532Z,21.67
2022-09-22T08:50:38.521Z,22.05
2022-09-22T08:51:38.512Z,22.56
2022-09-22T08:52:38.506Z,22.69
2022-09-22T08:53:38.510Z,22.66
2022-09-22T08:54:38.475Z,22.67
2022-09-22T08:55:38.462Z,22.79
2022-09-22T08:56:38.452Z,22.94
2022-09-22T08:57:38.436Z,22.93
2022-09-22T08:58:38.428Z,23.11
2022-09-22T08:59:38.411Z,23.04
2022-09-22T09:00:42.596Z,23.12
2022-09-22T09:01:38.435Z,23.37
2022-09-22T09:02:38.426Z,23.50
2022-09-22T09:03:38.356Z,23.74
2022-09-22T09:04:38.345Z,24.11
2022-09-22T09:05:38.334Z,24.05
2022-09-22T09:06:38.327Z,24.26
2022-09-22T09:07:38.306Z,24.59
2022-09-22T09:08:38.299Z,24.64
2022-09-22T09:09:38.339Z,24.71
2022-09-22T09:10:38.270Z,24.99
2022-09-22T09:11:38.253Z,25.34
2022-09-22T09:12:38.240Z,25.63
2022-09-22T09:13:38.225Z,26.00
2022-09-22T09:14:38.232Z,26.20
2022-09-22T09:15:38.304Z,26.24
2022-09-22T09:16:38.202Z,25.23
2022-09-22T09:17:38.201Z,25.45
2022-09-22T09:18:38.172Z,25.89
2022-09-22T09:19:38.155Z,26.03
2022-09-22T09:20:38.148Z,26.28
2022-09-22T09:21:38.135Z,25.31
2022-09-22T09:22:38.126Z,24.77
2022-09-22T09:25:38.105Z,26.20
2022-09-22T09:26:38.077Z,26.83
2022-09-22T09:27:38.052Z,26.68
2022-09-22T09:28:38.048Z,26.49
2022-09-22T09:29:38.024Z,25.72
2022-09-22T09:30:38.018Z,26.24
2022-09-22T09:31:38.006Z,25.38
2022-09-22T09:32:37.995Z,24.98
2022-09-22T09:33:37.981Z,25.44
2022-09-22T09:34:37.976Z,25.35
2022-09-22T09:35:41.284Z,25.91
2022-09-22T09:36:37.948Z,26.57
2022-09-22T09:37:37.932Z,27.21
2022-09-22T09:38:37.922Z,27.23
2022-09-22T09:39:37.905Z,27.13
2022-09-22T09:40:37.910Z,27.50
2022-09-22T09:41:37.897Z,27.88
2022-09-22T09:42:37.866Z,27.96
2022-09-22T09:43:37.854Z,27.83
2022-09-22T09:44:37.847Z,28.05
2022-09-22T09:45:37.829Z,28.28
2022-09-22T09:46:37.858Z,28.52
2022-09-22T09:47:37.807Z,27.91
2022-09-22T09:48:37.827Z,27.13
2022-09-22T09:49:37.783Z,27.23
2022-09-22T09:50:37.778Z,27.02
2022-09-22T09:51:40.582Z,27.27
2022-09-22T09:52:37.749Z,27.81
2022-09-22T09:53:41.059Z,28.24
2022-09-22T09:54:37.725Z,27.93
2022-09-22T09:55:37.706Z,27.96
2022-09-22T09:56:37.704Z,28.28
2022-09-22T09:57:37.706Z,28.87
2022-09-22T09:58:37.675Z,28.92
2022-09-22T09:59:37.664Z,28.67
2022-09-22T10:00:37.652Z,27.71
2022-09-22T10:01:37.681Z,27.03
2022-09-22T10:02:37.625Z,26.17
2022-09-22T10:03:37.642Z,24.71
2022-09-22T10:04:37.597Z,24.41
2022-09-22T10:05:37.645Z,23.64
2022-09-22T10:06:37.581Z,22.96
2022-09-22T10:07:37.574Z,22.97
2022-09-22T10:08:37.557Z,22.88
2022-09-22T10:09:37.538Z,22.39
2022-09-22T10:10:37.524Z,22.35
2022-09-22T10:11:37.516Z,23.04
2022-09-22T10:12:37.503Z,23.60
2022-09-22T10:13:37.519Z,24.55
2022-09-22T10:14:37.483Z,25.19
2022-09-22T10:15:37.570Z,25.36
2022-09-22T10:16:37.452Z,25.75
2022-09-22T10:17:37.441Z,25.78
2022-09-22T10:18:37.662Z,26.03
2022-09-22T10:19:37.424Z,25.93
2022-09-22T10:20:37.403Z,25.89
2022-09-22T10:21:37.389Z,25.54
2022-09-22T10:22:39.809Z,24.49
2022-09-22T10:23:37.371Z,23.42
2022-09-22T10:24:37.355Z,22.96
2022-09-22T10:25:37.340Z,22.74
2022-09-22T10:26:37.331Z,22.66
2022-09-22T10:27:37.312Z,22.79
2022-09-22T10:28:37.306Z,22.61
2022-09-22T10:29:37.317Z,21.93
2022-09-22T10:30:37.294Z,21.42
2022-09-22T10:31:37.291Z,21.45
2022-09-22T10:32:37.258Z,21.56
2022-09-22T10:33:41.718Z,21.59
2022-09-22T10:34:38.301Z,21.56
2022-09-22T10:35:37.221Z,21.75
2022-09-22T10:36:37.208Z,21.81
2022-09-22T10:37:37.190Z,21.99
2022-09-22T10:38:37.218Z,21.79
2022-09-22T10:39:37.164Z,21.51
2022-09-22T10:40:37.223Z,21.03
2022-09-22T10:41:37.143Z,20.63
2022-09-22T10:42:37.134Z,20.25
2022-09-22T10:43:37.118Z,19.95
2022-09-22T10:44:40.322Z,19.70
2022-09-22T10:45:37.108Z,19.70
2022-09-22T10:46:37.194Z,19.67
2022-09-22T10:47:37.064Z,19.52
2022-09-22T10:48:37.049Z,19.43
2022-09-22T10:49:37.034Z,19.40
2022-09-22T10:50:37.028Z,19.71
2022-09-22T10:51:37.012Z,19.64
2022-09-22T10:52:37.002Z,19.92
2022-09-22T10:53:36.985Z,20.17
2022-09-22T10:54:36.973Z,20.25
2022-09-22T10:55:36.959Z,20.23
2022-09-22T10:56:36.951Z,20.00
2022-09-22T10:57:36.937Z,19.71
2022-09-22T10:59:10.360Z,19.70
2022-09-22T11:00:10.346Z,19.82
2022-09-22T11:01:10.479Z,19.83
2022-09-22T11:02:10.323Z,20.07
2022-09-22T11:03:10.303Z,20.44
2022-09-22T11:04:10.417Z,21.33
2022-09-22T11:05:10.274Z,22.20
2022-09-22T11:06:10.271Z,23.03
2022-09-22T11:07:10.246Z,23.45
2022-09-22T11:08:10.232Z,23.54
2022-09-22T11:09:10.222Z,23.22
2022-09-22T11:10:10.211Z,22.82
2022-09-22T11:11:10.205Z,22.39
2022-09-22T11:12:10.187Z,21.75
2022-09-22T11:13:10.173Z,21.58
2022-09-22T11:14:10.404Z,22.29
2022-09-22T11:15:10.142Z,23.09
2022-09-22T11:16:10.204Z,23.97
2022-09-22T11:17:10.138Z,24.68
2022-09-22T11:18:10.105Z,25.30
2022-09-22T11:19:10.092Z,26.16
2022-09-22T11:20:10.156Z,26.44
2022-09-22T11:21:10.122Z,26.98
2022-09-22T11:22:10.058Z,27.15
2022-09-22T11:23:10.040Z,27.48
2022-09-22T11:24:10.030Z,27.77
2022-09-22T11:25:10.011Z,28.18
2022-09-22T11:26:10.005Z,27.86
2022-09-22T11:27:09.985Z,27.80
2022-09-22T11:28:09.976Z,27.59
2022-09-22T11:29:10.001Z,27.84
2022-09-22T11:30:11.385Z,28.25
2022-09-22T11:31:10.009Z,28.46
2022-09-22T11:32:09.925Z,27.93
2022-09-22T11:33:09.927Z,27.65
2022-09-22T11:34:09.895Z,27.35
2022-09-22T11:35:09.883Z,27.91
2022-09-22T11:36:09.870Z,27.87
2022-09-22T11:37:09.855Z,27.39
2022-09-22T11:38:09.850Z,27.45
2022-09-22T11:39:09.888Z,27.95
2022-09-22T11:40:09.967Z,27.45
2022-09-22T11:41:09.813Z,26.83
2022-09-22T11:42:09.798Z,27.01
2022-09-22T11:43:09.776Z,27.21
2022-09-22T11:44:09.910Z,27.15
2022-09-22T11:45:09.751Z,27.53
2022-09-22T11:46:09.787Z,27.16
2022-09-22T11:47:09.732Z,26.76
2022-09-22T11:48:09.716Z,27.11
2022-09-22T11:49:09.795Z,27.53
2022-09-22T11:50:09.700Z,28.05
2022-09-22T11:51:09.743Z,28.57
2022-09-22T11:52:12.748Z,28.64
2022-09-22T11:53:10.676Z,28.21
2022-09-22T11:54:09.640Z,28.40
2022-09-22T11:55:09.636Z,28.54
2022-09-22T11:56:09.618Z,28.42
2022-09-22T11:57:09.626Z,28.69
2022-09-22T11:58:09.589Z,28.76
2022-09-22T11:59:09.595Z,28.57
2022-09-22T12:00:09.585Z,28.36
2022-09-22T12:01:13.124Z,28.02
2022-09-22T12:02:09.737Z,27.31
2022-09-22T12:03:09.667Z,27.69
2022-09-22T12:04:09.601Z,28.17
2022-09-22T12:05:09.525Z,28.30
2022-09-22T12:06:09.493Z,28.48
2022-09-22T12:07:09.494Z,28.18
2022-09-22T12:08:09.461Z,28.28
2022-09-22T12:09:09.459Z,28.20
2022-09-22T12:10:09.439Z,28.08
2022-09-22T12:11:09.476Z,28.35
2022-09-22T12:12:09.415Z,28.54
2022-09-22T12:13:09.400Z,28.55
2022-09-22T12:14:09.538Z,28.11
2022-09-22T12:15:09.378Z,28.50
2022-09-22T12:16:09.372Z,28.69
2022-09-22T12:17:09.355Z,28.62
2022-09-22T12:18:09.345Z,28.05
2022-09-22T12:19:09.329Z,28.25
2022-09-22T12:20:09.336Z,28.42
2022-09-22T12:21:09.323Z,28.73
2022-09-22T12:22:09.288Z,28.60
2022-09-22T12:23:09.283Z,28.15
2022-09-22T12:24:09.365Z,27.49
2022-09-22T12:25:20.724Z,27.06
2022-09-22T12:26:10.267Z,27.12
2022-09-22T12:27:09.242Z,26.87
2022-09-22T12:28:09.217Z,26.61
2022-09-22T12:29:09.249Z,26.51
2022-09-22T12:30:13.533Z,26.32
2022-09-22T12:31:09.273Z,26.68
2022-09-22T12:32:09.164Z,26.84
2022-09-22T12:33:09.155Z,26.51
2022-09-22T12:34:09.139Z,25.98
2022-09-22T12:35:09.127Z,26.09
2022-09-22T12:36:09.112Z,26.36
2022-09-22T12:37:09.169Z,26.54
2022-09-22T12:38:09.085Z,26.61
2022-09-22T12:39:09.241Z,26.68
2022-09-22T12:40:09.118Z,27.21
2022-09-22T12:41:09.052Z,27.30
2022-09-22T12:42:09.038Z,27.21
2022-09-22T12:43:09.028Z,27.58
2022-09-22T12:44:09.017Z,28.13
2022-09-22T12:45:09.006Z,28.50
2022-09-22T12:46:09.008Z,28.50
2022-09-22T12:47:09.019Z,28.36
2022-09-22T12:48:10.534Z,28.23
2022-09-22T12:49:09.164Z,27.95
2022-09-22T12:50:08.936Z,28.02
2022-09-22T12:51:08.934Z,27.76
2022-09-22T12:52:08.912Z,27.15
2022-09-22T12:53:08.925Z,26.03
2022-09-22T12:54:08.887Z,25.60
2022-09-22T12:55:08.873Z,26.04
2022-09-22T12:56:08.858Z,26.64
2022-09-22T12:57:08.948Z,27.03
2022-09-22T12:58:08.835Z,27.31
2022-09-22T12:59:08.826Z,27.06
2022-09-22T13:00:08.827Z,26.98
2022-09-22T13:01:08.922Z,26.17
2022-09-22T13:02:08.827Z,26.29
2022-09-22T13:03:08.786Z,27.01
2022-09-22T13:04:08.891Z,26.64
2022-09-22T13:05:08.755Z,27.09
2022-09-22T13:06:08.739Z,27.72
2022-09-22T13:07:08.730Z,28.17
2022-09-22T13:08:08.778Z,28.39